sensor_id;sensor_type;location;lat;lon;timestamp;temperature;humidity
22114;DHT22;11223;49.968;9.062;2023-08-31T00:01:38;12.90;99.90
22114;DHT22;11223;49.968;9.062;2023-08-31T00:04:04;12.90;99.90
22114;DHT22;11223;49.968;9.062;2023-08-31T00:06:30;12.90;99.90
22114;DHT22;11223;49.968;9.062;2023-08-31T00:08:55;12.90;99.90
22114;DHT22;11223;49.968;9.062;2023-08-31T00:11:21;12.90;99.90
22114;DHT22;11223;49.968;9.062;2023-08-31T00:13:46;12.90;99.90
22114;DHT22;11223;49.968;9.062;2023-08-31T00:16:12;12.90;99.90
22114;DHT22;11223;49.968;9.062;2023-08-31T00:18:37;12.90;99.90
22114;DHT22;11223;49.968;9.062;2023-08-31T00:21:04;12.90;99.90
22114;DHT22;11223;49.968;9.062;2023-08-31T00:23:29;12.90;99.90
22114;DHT22;11223;49.968;9.062;2023-08-31T00:25:55;12.90;99.90
22114;DHT22;11223;49.968;9.062;2023-08-31T00:28:22;12.90;99.90
22114;DHT22;11223;49.968;9.062;2023-08-31T00:30:48;12.90;99.90
22114;DHT22;11223;49.968;9.062;2023-08-31T00:33:14;12.90;99.90
22114;DHT22;11223;49.968;9.062;2023-08-31T00:35:39;12.90;99.90
22114;DHT22;11223;49.968;9.062;2023-08-31T00:38:11;12.90;99.90
22114;DHT22;11223;49.968;9.062;2023-08-31T00:40:43;12.90;99.90
22114;DHT22;11223;49.968;9.062;2023-08-31T00:43:13;12.90;99.90
22114;DHT22;11223;49.968;9.062;2023-08-31T00:45:40;12.90;99.90
22114;DHT22;11223;49.968;9.062;2023-08-31T00:48:06;12.80;99.90
22114;DHT22;11223;49.968;9.062;2023-08-31T00:50:32;12.80;99.90
22114;DHT22;11223;49.968;9.062;2023-08-31T00:52:58;12.80;99.90
22114;DHT22;11223;49.968;9.062;2023-08-31T00:55:23;12.80;99.90
22114;DHT22;11223;49.968;9.062;2023-08-31T00:57:49;12.80;99.90
22114;DHT22;11223;49.968;9.062;2023-08-31T01:00:14;12.80;99.90
22114;DHT22;11223;49.968;9.062;2023-08-31T01:02:44;12.70;99.90
22114;DHT22;11223;49.968;9.062;2023-08-31T01:05:55;12.70;99.90
22114;DHT22;11223;49.968;9.062;2023-08-31T01:08:12;12.80;99.90
22114;DHT22;11223;49.968;9.062;2023-08-31T01:10:58;12.80;99.90
22114;DHT22;11223;49.968;9.062;2023-08-31T01:13:25;12.80;99.90
22114;DHT22;11223;49.968;9.062;2023-08-31T01:15:54;12.70;99.90
22114;DHT22;11223;49.968;9.062;2023-08-31T01:18:21;12.70;99.90
22114;DHT22;11223;49.968;9.062;2023-08-31T01:23:42;12.60;99.90
22114;DHT22;11223;49.968;9.062;2023-08-31T01:26:08;12.70;99.90
22114;DHT22;11223;49.968;9.062;2023-08-31T01:28:35;12.60;99.90
22114;DHT22;11223;49.968;9.062;2023-08-31T01:31:03;12.60;99.90
22114;DHT22;11223;49.968;9.062;2023-08-31T01:33:28;12.60;99.90
22114;DHT22;11223;49.968;9.062;2023-08-31T01:35:54;12.60;99.90
22114;DHT22;11223;49.968;9.062;2023-08-31T01:38:21;12.50;99.90
22114;DHT22;11223;49.968;9.062;2023-08-31T01:40:52;12.50;99.90
22114;DHT22;11223;49.968;9.062;2023-08-31T01:43:19;12.40;99.90
22114;DHT22;11223;49.968;9.062;2023-08-31T01:45:46;12.40;99.90
22114;DHT22;11223;49.968;9.062;2023-08-31T01:48:13;12.40;99.90
22114;DHT22;11223;49.968;9.062;2023-08-31T01:50:39;12.30;99.90
22114;DHT22;11223;49.968;9.062;2023-08-31T01:53:04;12.30;99.90
22114;DHT22;11223;49.968;9.062;2023-08-31T01:55:32;12.30;99.90
22114;DHT22;11223;49.968;9.062;2023-08-31T01:57:57;12.30;99.90
22114;DHT22;11223;49.968;9.062;2023-08-31T02:00:24;12.30;99.90
22114;DHT22;11223;49.968;9.062;2023-08-31T02:02:50;12.30;99.90
22114;DHT22;11223;49.968;9.062;2023-08-31T02:05:15;12.20;99.90
22114;DHT22;11223;49.968;9.062;2023-08-31T02:07:41;12.20;99.90
22114;DHT22;11223;49.968;9.062;2023-08-31T02:10:06;12.20;99.90
22114;DHT22;11223;49.968;9.062;2023-08-31T02:12:32;12.20;99.90
22114;DHT22;11223;49.968;9.062;2023-08-31T02:14:58;12.20;99.90
22114;DHT22;11223;49.968;9.062;2023-08-31T02:17:23;12.10;99.90
22114;DHT22;11223;49.968;9.062;2023-08-31T02:19:49;12.10;99.90
22114;DHT22;11223;49.968;9.062;2023-08-31T02:22:14;12.00;99.90
22114;DHT22;11223;49.968;9.062;2023-08-31T02:24:40;12.00;99.90
22114;DHT22;11223;49.968;9.062;2023-08-31T02:27:05;12.00;99.90
22114;DHT22;11223;49.968;9.062;2023-08-31T02:29:30;12.00;99.90
22114;DHT22;11223;49.968;9.062;2023-08-31T02:31:56;12.10;99.90
22114;DHT22;11223;49.968;9.062;2023-08-31T02:34:21;12.10;99.90
22114;DHT22;11223;49.968;9.062;2023-08-31T02:36:47;12.00;99.90
22114;DHT22;11223;49.968;9.062;2023-08-31T02:39:12;12.00;99.90
22114;DHT22;11223;49.968;9.062;2023-08-31T02:41:38;12.00;99.90
22114;DHT22;11223;49.968;9.062;2023-08-31T02:44:04;12.00;99.90
22114;DHT22;11223;49.968;9.062;2023-08-31T02:46:29;12.00;99.90
22114;DHT22;11223;49.968;9.062;2023-08-31T02:48:55;12.00;99.90
22114;DHT22;11223;49.968;9.062;2023-08-31T02:51:21;11.90;99.90
22114;DHT22;11223;49.968;9.062;2023-08-31T02:53:47;11.90;99.90
22114;DHT22;11223;49.968;9.062;2023-08-31T02:56:12;11.90;99.90
22114;DHT22;11223;49.968;9.062;2023-08-31T02:58:38;11.90;99.90
22114;DHT22;11223;49.968;9.062;2023-08-31T03:01:10;11.90;99.90
22114;DHT22;11223;49.968;9.062;2023-08-31T03:03:39;11.90;99.90
22114;DHT22;11223;49.968;9.062;2023-08-31T03:06:05;11.90;99.90
22114;DHT22;11223;49.968;9.062;2023-08-31T03:08:31;11.90;99.90
22114;DHT22;11223;49.968;9.062;2023-08-31T03:10:56;11.90;99.90
22114;DHT22;11223;49.968;9.062;2023-08-31T03:13:22;11.90;99.90
22114;DHT22;11223;49.968;9.062;2023-08-31T03:15:47;11.90;99.90
22114;DHT22;11223;49.968;9.062;2023-08-31T03:18:13;12.00;99.90
22114;DHT22;11223;49.968;9.062;2023-08-31T03:20:38;11.90;99.90
22114;DHT22;11223;49.968;9.062;2023-08-31T03:23:04;11.90;99.90
22114;DHT22;11223;49.968;9.062;2023-08-31T03:25:29;12.00;99.90
22114;DHT22;11223;49.968;9.062;2023-08-31T03:27:55;12.00;99.90
22114;DHT22;11223;49.968;9.062;2023-08-31T03:30:20;12.00;99.90
22114;DHT22;11223;49.968;9.062;2023-08-31T03:32:46;12.00;99.90
22114;DHT22;11223;49.968;9.062;2023-08-31T03:35:11;12.00;99.90
22114;DHT22;11223;49.968;9.062;2023-08-31T03:37:37;12.00;99.90
22114;DHT22;11223;49.968;9.062;2023-08-31T03:40:02;12.00;99.90
22114;DHT22;11223;49.968;9.062;2023-08-31T03:42:30;12.00;99.90
22114;DHT22;11223;49.968;9.062;2023-08-31T03:44:55;12.00;99.90
22114;DHT22;11223;49.968;9.062;2023-08-31T03:47:20;12.10;99.90
22114;DHT22;11223;49.968;9.062;2023-08-31T03:49:46;12.10;99.90
22114;DHT22;11223;49.968;9.062;2023-08-31T03:52:11;12.10;99.90
22114;DHT22;11223;49.968;9.062;2023-08-31T03:54:37;12.10;99.90
22114;DHT22;11223;49.968;9.062;2023-08-31T03:57:02;12.20;99.90
22114;DHT22;11223;49.968;9.062;2023-08-31T03:59:28;12.20;99.90
22114;DHT22;11223;49.968;9.062;2023-08-31T04:01:53;12.20;99.90
22114;DHT22;11223;49.968;9.062;2023-08-31T04:04:19;12.30;99.90
22114;DHT22;11223;49.968;9.062;2023-08-31T04:06:44;12.30;99.90
22114;DHT22;11223;49.968;9.062;2023-08-31T04:09:10;12.30;99.90
22114;DHT22;11223;49.968;9.062;2023-08-31T04:11:35;12.30;99.90
22114;DHT22;11223;49.968;9.062;2023-08-31T04:14:01;12.30;99.90
22114;DHT22;11223;49.968;9.062;2023-08-31T04:16:27;12.40;99.90
22114;DHT22;11223;49.968;9.062;2023-08-31T04:18:54;12.40;99.90
22114;DHT22;11223;49.968;9.062;2023-08-31T04:21:20;12.40;99.90
22114;DHT22;11223;49.968;9.062;2023-08-31T04:23:45;12.30;99.90
22114;DHT22;11223;49.968;9.062;2023-08-31T04:26:11;12.30;99.90
22114;DHT22;11223;49.968;9.062;2023-08-31T04:28:38;12.40;99.90
22114;DHT22;11223;49.968;9.062;2023-08-31T04:31:05;12.40;99.90
22114;DHT22;11223;49.968;9.062;2023-08-31T04:33:30;12.40;99.90
22114;DHT22;11223;49.968;9.062;2023-08-31T04:35:56;12.40;99.90
22114;DHT22;11223;49.968;9.062;2023-08-31T04:38:21;12.40;99.90
22114;DHT22;11223;49.968;9.062;2023-08-31T04:40:47;12.30;99.90
22114;DHT22;11223;49.968;9.062;2023-08-31T04:43:13;12.30;99.90
22114;DHT22;11223;49.968;9.062;2023-08-31T04:45:38;12.30;99.90
22114;DHT22;11223;49.968;9.062;2023-08-31T04:48:04;12.30;99.90
22114;DHT22;11223;49.968;9.062;2023-08-31T04:50:29;12.30;99.90
22114;DHT22;11223;49.968;9.062;2023-08-31T04:52:55;12.40;99.90
22114;DHT22;11223;49.968;9.062;2023-08-31T04:55:21;12.40;99.90
22114;DHT22;11223;49.968;9.062;2023-08-31T04:57:46;12.40;99.90
22114;DHT22;11223;49.968;9.062;2023-08-31T05:00:12;12.40;99.90
22114;DHT22;11223;49.968;9.062;2023-08-31T05:02:38;12.40;99.90
22114;DHT22;11223;49.968;9.062;2023-08-31T05:05:04;12.40;99.90
22114;DHT22;11223;49.968;9.062;2023-08-31T05:07:30;12.40;99.90
22114;DHT22;11223;49.968;9.062;2023-08-31T05:09:55;12.40;99.90
22114;DHT22;11223;49.968;9.062;2023-08-31T05:12:21;12.40;99.90
22114;DHT22;11223;49.968;9.062;2023-08-31T05:14:46;12.40;99.90
22114;DHT22;11223;49.968;9.062;2023-08-31T05:17:11;12.40;99.90
22114;DHT22;11223;49.968;9.062;2023-08-31T05:19:37;12.50;99.90
22114;DHT22;11223;49.968;9.062;2023-08-31T05:22:02;12.50;99.90
22114;DHT22;11223;49.968;9.062;2023-08-31T05:24:28;12.50;99.90
22114;DHT22;11223;49.968;9.062;2023-08-31T05:26:53;12.50;99.90
22114;DHT22;11223;49.968;9.062;2023-08-31T05:29:19;12.50;99.90
22114;DHT22;11223;49.968;9.062;2023-08-31T05:31:44;12.60;99.90
22114;DHT22;11223;49.968;9.062;2023-08-31T05:34:10;12.60;99.90
22114;DHT22;11223;49.968;9.062;2023-08-31T05:36:36;12.60;99.90
22114;DHT22;11223;49.968;9.062;2023-08-31T05:39:01;12.60;99.90
22114;DHT22;11223;49.968;9.062;2023-08-31T05:41:27;12.70;99.90
22114;DHT22;11223;49.968;9.062;2023-08-31T05:43:52;12.80;99.90
22114;DHT22;11223;49.968;9.062;2023-08-31T05:46:18;12.90;99.90
22114;DHT22;11223;49.968;9.062;2023-08-31T05:48:43;12.90;99.90
22114;DHT22;11223;49.968;9.062;2023-08-31T05:51:09;12.90;99.90
22114;DHT22;11223;49.968;9.062;2023-08-31T05:53:34;13.00;99.90
22114;DHT22;11223;49.968;9.062;2023-08-31T05:56:00;13.10;99.90
22114;DHT22;11223;49.968;9.062;2023-08-31T05:58:35;13.10;99.90
22114;DHT22;11223;49.968;9.062;2023-08-31T06:01:04;13.20;99.90
22114;DHT22;11223;49.968;9.062;2023-08-31T06:03:30;13.20;99.90
22114;DHT22;11223;49.968;9.062;2023-08-31T06:05:56;13.20;99.90
22114;DHT22;11223;49.968;9.062;2023-08-31T06:08:22;13.30;99.90
22114;DHT22;11223;49.968;9.062;2023-08-31T06:10:47;13.30;99.90
22114;DHT22;11223;49.968;9.062;2023-08-31T06:13:13;13.30;99.90
22114;DHT22;11223;49.968;9.062;2023-08-31T06:15:38;13.40;99.90
22114;DHT22;11223;49.968;9.062;2023-08-31T06:18:04;13.40;99.90
22114;DHT22;11223;49.968;9.062;2023-08-31T06:20:30;13.40;99.90
22114;DHT22;11223;49.968;9.062;2023-08-31T06:22:55;13.50;99.90
22114;DHT22;11223;49.968;9.062;2023-08-31T06:25:21;13.50;99.90
22114;DHT22;11223;49.968;9.062;2023-08-31T06:27:48;13.60;99.90
22114;DHT22;11223;49.968;9.062;2023-08-31T06:30:13;13.70;99.90
22114;DHT22;11223;49.968;9.062;2023-08-31T06:32:42;13.70;99.90
22114;DHT22;11223;49.968;9.062;2023-08-31T06:35:08;13.80;99.90
22114;DHT22;11223;49.968;9.062;2023-08-31T06:37:33;13.90;99.90
22114;DHT22;11223;49.968;9.062;2023-08-31T06:39:59;13.90;99.90
22114;DHT22;11223;49.968;9.062;2023-08-31T06:42:24;14.00;99.90
22114;DHT22;11223;49.968;9.062;2023-08-31T06:44:50;14.00;99.90
22114;DHT22;11223;49.968;9.062;2023-08-31T06:47:16;14.10;99.90
22114;DHT22;11223;49.968;9.062;2023-08-31T06:49:43;14.20;99.90
22114;DHT22;11223;49.968;9.062;2023-08-31T06:52:08;14.30;99.90
22114;DHT22;11223;49.968;9.062;2023-08-31T06:54:34;14.40;99.90
22114;DHT22;11223;49.968;9.062;2023-08-31T06:56:59;14.50;99.90
22114;DHT22;11223;49.968;9.062;2023-08-31T06:59:25;14.50;99.90
22114;DHT22;11223;49.968;9.062;2023-08-31T07:01:50;14.60;99.90
22114;DHT22;11223;49.968;9.062;2023-08-31T07:04:16;14.60;99.90
22114;DHT22;11223;49.968;9.062;2023-08-31T07:06:41;14.70;99.90
22114;DHT22;11223;49.968;9.062;2023-08-31T07:09:07;14.70;99.90
22114;DHT22;11223;49.968;9.062;2023-08-31T07:11:33;14.70;99.90
22114;DHT22;11223;49.968;9.062;2023-08-31T07:13:59;14.70;99.90
22114;DHT22;11223;49.968;9.062;2023-08-31T07:16:25;14.70;99.90
22114;DHT22;11223;49.968;9.062;2023-08-31T07:18:50;14.70;99.90
22114;DHT22;11223;49.968;9.062;2023-08-31T07:21:16;14.60;99.90
22114;DHT22;11223;49.968;9.062;2023-08-31T07:23:41;14.60;99.90
22114;DHT22;11223;49.968;9.062;2023-08-31T07:26:07;14.50;99.90
22114;DHT22;11223;49.968;9.062;2023-08-31T07:28:32;14.50;99.90
22114;DHT22;11223;49.968;9.062;2023-08-31T07:31:04;14.50;99.90
22114;DHT22;11223;49.968;9.062;2023-08-31T07:33:30;14.50;99.90
22114;DHT22;11223;49.968;9.062;2023-08-31T07:35:57;14.50;99.90
22114;DHT22;11223;49.968;9.062;2023-08-31T07:38:22;14.60;99.90
22114;DHT22;11223;49.968;9.062;2023-08-31T07:40:48;14.60;99.90
22114;DHT22;11223;49.968;9.062;2023-08-31T07:43:14;14.60;99.90
22114;DHT22;11223;49.968;9.062;2023-08-31T07:45:39;14.70;99.90
22114;DHT22;11223;49.968;9.062;2023-08-31T07:48:05;14.70;99.90
22114;DHT22;11223;49.968;9.062;2023-08-31T07:50:32;14.80;99.90
22114;DHT22;11223;49.968;9.062;2023-08-31T07:52:57;14.80;99.90
22114;DHT22;11223;49.968;9.062;2023-08-31T07:55:23;14.90;99.90
22114;DHT22;11223;49.968;9.062;2023-08-31T07:57:48;14.90;99.90
22114;DHT22;11223;49.968;9.062;2023-08-31T08:00:14;14.90;99.90
22114;DHT22;11223;49.968;9.062;2023-08-31T08:02:42;15.00;99.90
22114;DHT22;11223;49.968;9.062;2023-08-31T08:05:07;15.00;99.90
22114;DHT22;11223;49.968;9.062;2023-08-31T08:07:33;15.10;99.90
22114;DHT22;11223;49.968;9.062;2023-08-31T08:09:58;15.10;99.90
22114;DHT22;11223;49.968;9.062;2023-08-31T08:12:25;15.10;99.90
22114;DHT22;11223;49.968;9.062;2023-08-31T08:14:50;15.10;99.90
22114;DHT22;11223;49.968;9.062;2023-08-31T08:17:16;15.20;99.90
22114;DHT22;11223;49.968;9.062;2023-08-31T08:19:41;15.20;99.90
22114;DHT22;11223;49.968;9.062;2023-08-31T08:22:07;15.20;99.90
22114;DHT22;11223;49.968;9.062;2023-08-31T08:24:32;15.30;99.90
22114;DHT22;11223;49.968;9.062;2023-08-31T08:26:58;15.30;99.90
22114;DHT22;11223;49.968;9.062;2023-08-31T08:29:24;15.30;99.90
22114;DHT22;11223;49.968;9.062;2023-08-31T08:31:50;15.50;99.90
22114;DHT22;11223;49.968;9.062;2023-08-31T08:34:15;15.60;99.90
22114;DHT22;11223;49.968;9.062;2023-08-31T08:36:41;15.60;99.90
22114;DHT22;11223;49.968;9.062;2023-08-31T08:39:06;15.70;99.90
22114;DHT22;11223;49.968;9.062;2023-08-31T08:41:32;15.70;99.90
22114;DHT22;11223;49.968;9.062;2023-08-31T08:44:01;15.80;99.90
22114;DHT22;11223;49.968;9.062;2023-08-31T08:46:26;16.00;99.90
22114;DHT22;11223;49.968;9.062;2023-08-31T08:48:52;16.00;99.90
22114;DHT22;11223;49.968;9.062;2023-08-31T08:51:18;15.90;99.90
22114;DHT22;11223;49.968;9.062;2023-08-31T08:53:44;15.90;99.90
22114;DHT22;11223;49.968;9.062;2023-08-31T08:56:10;15.80;99.90
22114;DHT22;11223;49.968;9.062;2023-08-31T08:58:36;15.80;99.90
22114;DHT22;11223;49.968;9.062;2023-08-31T09:01:01;15.80;99.90
22114;DHT22;11223;49.968;9.062;2023-08-31T09:03:27;15.80;99.90
22114;DHT22;11223;49.968;9.062;2023-08-31T09:05:53;15.80;99.90
22114;DHT22;11223;49.968;9.062;2023-08-31T09:08:25;15.90;99.90
22114;DHT22;11223;49.968;9.062;2023-08-31T09:10:50;16.00;99.90
22114;DHT22;11223;49.968;9.062;2023-08-31T09:13:16;16.00;99.90
22114;DHT22;11223;49.968;9.062;2023-08-31T09:15:48;16.00;99.90
22114;DHT22;11223;49.968;9.062;2023-08-31T09:18:14;16.00;99.90
22114;DHT22;11223;49.968;9.062;2023-08-31T09:20:45;16.10;99.90
22114;DHT22;11223;49.968;9.062;2023-08-31T09:23:11;16.20;99.90
22114;DHT22;11223;49.968;9.062;2023-08-31T09:25:43;16.20;99.90
22114;DHT22;11223;49.968;9.062;2023-08-31T09:28:12;16.20;99.90
22114;DHT22;11223;49.968;9.062;2023-08-31T09:30:37;16.30;99.90
22114;DHT22;11223;49.968;9.062;2023-08-31T09:33:07;16.30;99.90
22114;DHT22;11223;49.968;9.062;2023-08-31T09:35:34;16.30;99.90
22114;DHT22;11223;49.968;9.062;2023-08-31T09:37:59;16.40;99.90
22114;DHT22;11223;49.968;9.062;2023-08-31T09:40:25;16.50;99.90
22114;DHT22;11223;49.968;9.062;2023-08-31T09:42:51;16.50;99.90
22114;DHT22;11223;49.968;9.062;2023-08-31T09:45:17;16.60;99.90
22114;DHT22;11223;49.968;9.062;2023-08-31T09:47:42;16.80;99.90
22114;DHT22;11223;49.968;9.062;2023-08-31T09:50:08;17.10;99.90
22114;DHT22;11223;49.968;9.062;2023-08-31T09:52:34;17.20;99.90
22114;DHT22;11223;49.968;9.062;2023-08-31T09:55:00;17.20;99.90
22114;DHT22;11223;49.968;9.062;2023-08-31T09:57:26;17.20;99.90
22114;DHT22;11223;49.968;9.062;2023-08-31T09:59:52;17.20;99.90
22114;DHT22;11223;49.968;9.062;2023-08-31T10:02:18;17.10;99.90
22114;DHT22;11223;49.968;9.062;2023-08-31T10:04:43;16.90;99.90
22114;DHT22;11223;49.968;9.062;2023-08-31T10:07:09;16.80;99.90
22114;DHT22;11223;49.968;9.062;2023-08-31T10:09:36;16.60;99.90
22114;DHT22;11223;49.968;9.062;2023-08-31T10:12:05;16.60;99.90
22114;DHT22;11223;49.968;9.062;2023-08-31T10:14:31;16.60;99.90
22114;DHT22;11223;49.968;9.062;2023-08-31T10:16:57;16.80;99.90
22114;DHT22;11223;49.968;9.062;2023-08-31T10:19:22;17.10;99.90
22114;DHT22;11223;49.968;9.062;2023-08-31T10:21:48;17.10;99.90
22114;DHT22;11223;49.968;9.062;2023-08-31T10:24:14;17.10;99.90
22114;DHT22;11223;49.968;9.062;2023-08-31T10:26:39;17.00;99.90
22114;DHT22;11223;49.968;9.062;2023-08-31T10:29:05;17.10;99.90
22114;DHT22;11223;49.968;9.062;2023-08-31T10:31:34;17.20;99.90
22114;DHT22;11223;49.968;9.062;2023-08-31T10:34:00;17.20;99.90
22114;DHT22;11223;49.968;9.062;2023-08-31T10:36:36;17.20;99.90
22114;DHT22;11223;49.968;9.062;2023-08-31T10:39:04;17.10;99.90
22114;DHT22;11223;49.968;9.062;2023-08-31T10:41:36;17.10;99.90
22114;DHT22;11223;49.968;9.062;2023-08-31T10:44:02;17.10;99.90
22114;DHT22;11223;49.968;9.062;2023-08-31T10:46:31;17.10;99.90
22114;DHT22;11223;49.968;9.062;2023-08-31T10:49:01;17.20;99.90
22114;DHT22;11223;49.968;9.062;2023-08-31T10:51:31;17.30;99.90
22114;DHT22;11223;49.968;9.062;2023-08-31T10:54:39;17.30;99.90
22114;DHT22;11223;49.968;9.062;2023-08-31T10:57:00;17.30;99.90
22114;DHT22;11223;49.968;9.062;2023-08-31T10:59:26;17.30;99.90
22114;DHT22;11223;49.968;9.062;2023-08-31T11:01:53;17.30;99.90
22114;DHT22;11223;49.968;9.062;2023-08-31T11:04:22;17.30;99.90
22114;DHT22;11223;49.968;9.062;2023-08-31T11:06:48;17.40;99.90
22114;DHT22;11223;49.968;9.062;2023-08-31T11:09:20;17.50;99.90
22114;DHT22;11223;49.968;9.062;2023-08-31T11:11:46;17.50;99.90
22114;DHT22;11223;49.968;9.062;2023-08-31T11:14:12;17.70;99.90
22114;DHT22;11223;49.968;9.062;2023-08-31T11:16:38;17.80;99.90
22114;DHT22;11223;49.968;9.062;2023-08-31T11:19:03;17.90;99.90
22114;DHT22;11223;49.968;9.062;2023-08-31T11:21:30;18.10;99.90
22114;DHT22;11223;49.968;9.062;2023-08-31T11:23:56;18.30;99.90
22114;DHT22;11223;49.968;9.062;2023-08-31T11:26:26;18.30;99.90
22114;DHT22;11223;49.968;9.062;2023-08-31T11:28:57;18.30;99.90
22114;DHT22;11223;49.968;9.062;2023-08-31T11:31:23;18.50;99.90
22114;DHT22;11223;49.968;9.062;2023-08-31T11:33:49;18.90;99.90
22114;DHT22;11223;49.968;9.062;2023-08-31T11:36:14;19.10;99.90
22114;DHT22;11223;49.968;9.062;2023-08-31T11:38:43;19.10;99.90
22114;DHT22;11223;49.968;9.062;2023-08-31T11:41:08;19.10;99.90
22114;DHT22;11223;49.968;9.062;2023-08-31T11:43:34;19.00;99.90
22114;DHT22;11223;49.968;9.062;2023-08-31T11:45:59;19.00;99.90
22114;DHT22;11223;49.968;9.062;2023-08-31T11:48:25;18.90;99.90
22114;DHT22;11223;49.968;9.062;2023-08-31T11:50:51;18.80;99.90
22114;DHT22;11223;49.968;9.062;2023-08-31T11:53:18;18.80;99.90
22114;DHT22;11223;49.968;9.062;2023-08-31T11:55:53;18.70;99.90
22114;DHT22;11223;49.968;9.062;2023-08-31T11:58:19;18.60;99.90
22114;DHT22;11223;49.968;9.062;2023-08-31T12:00:45;18.50;99.90
22114;DHT22;11223;49.968;9.062;2023-08-31T12:03:12;18.40;99.90
22114;DHT22;11223;49.968;9.062;2023-08-31T12:05:47;18.70;99.90
22114;DHT22;11223;49.968;9.062;2023-08-31T12:08:16;19.00;99.90
22114;DHT22;11223;49.968;9.062;2023-08-31T12:10:48;19.50;99.90
22114;DHT22;11223;49.968;9.062;2023-08-31T12:13:14;20.00;99.90
22114;DHT22;11223;49.968;9.062;2023-08-31T12:15:39;20.10;99.90
22114;DHT22;11223;49.968;9.062;2023-08-31T12:18:11;20.40;99.90
22114;DHT22;11223;49.968;9.062;2023-08-31T12:23:08;20.90;99.90
22114;DHT22;11223;49.968;9.062;2023-08-31T12:25:35;21.10;99.90
22114;DHT22;11223;49.968;9.062;2023-08-31T12:28:01;21.30;99.90
22114;DHT22;11223;49.968;9.062;2023-08-31T12:30:26;21.60;99.90
22114;DHT22;11223;49.968;9.062;2023-08-31T12:32:51;21.80;99.90
22114;DHT22;11223;49.968;9.062;2023-08-31T12:35:17;21.80;99.90
22114;DHT22;11223;49.968;9.062;2023-08-31T12:37:43;21.90;99.90
22114;DHT22;11223;49.968;9.062;2023-08-31T12:40:08;22.10;99.90
22114;DHT22;11223;49.968;9.062;2023-08-31T12:42:35;22.30;99.90
22114;DHT22;11223;49.968;9.062;2023-08-31T12:45:01;22.30;99.90
22114;DHT22;11223;49.968;9.062;2023-08-31T12:47:26;22.10;99.90
22114;DHT22;11223;49.968;9.062;2023-08-31T12:49:52;22.10;99.90
22114;DHT22;11223;49.968;9.062;2023-08-31T12:52:17;22.20;99.90
22114;DHT22;11223;49.968;9.062;2023-08-31T12:54:43;22.20;99.90
22114;DHT22;11223;49.968;9.062;2023-08-31T12:57:08;22.20;99.90
22114;DHT22;11223;49.968;9.062;2023-08-31T12:59:33;22.30;99.90
22114;DHT22;11223;49.968;9.062;2023-08-31T13:01:59;22.50;99.90
22114;DHT22;11223;49.968;9.062;2023-08-31T13:04:25;22.70;99.90
22114;DHT22;11223;49.968;9.062;2023-08-31T13:06:50;22.70;99.90
22114;DHT22;11223;49.968;9.062;2023-08-31T13:09:15;22.80;99.90
22114;DHT22;11223;49.968;9.062;2023-08-31T13:11:41;22.80;99.90
22114;DHT22;11223;49.968;9.062;2023-08-31T13:14:06;22.90;99.90
22114;DHT22;11223;49.968;9.062;2023-08-31T13:16:32;22.80;99.90
22114;DHT22;11223;49.968;9.062;2023-08-31T13:18:58;22.80;99.90
22114;DHT22;11223;49.968;9.062;2023-08-31T13:21:23;22.30;99.90
22114;DHT22;11223;49.968;9.062;2023-08-31T13:23:49;21.70;99.90
22114;DHT22;11223;49.968;9.062;2023-08-31T13:26:14;21.10;99.90
22114;DHT22;11223;49.968;9.062;2023-08-31T13:28:40;20.90;99.90
22114;DHT22;11223;49.968;9.062;2023-08-31T13:31:06;20.90;99.90
22114;DHT22;11223;49.968;9.062;2023-08-31T13:33:32;21.00;99.90
22114;DHT22;11223;49.968;9.062;2023-08-31T13:35:58;21.20;99.90
22114;DHT22;11223;49.968;9.062;2023-08-31T13:38:24;21.40;99.90
22114;DHT22;11223;49.968;9.062;2023-08-31T13:40:53;21.60;99.90
22114;DHT22;11223;49.968;9.062;2023-08-31T13:43:19;21.80;99.90
22114;DHT22;11223;49.968;9.062;2023-08-31T13:45:44;21.90;99.90
22114;DHT22;11223;49.968;9.062;2023-08-31T13:48:10;21.80;99.90
22114;DHT22;11223;49.968;9.062;2023-08-31T13:50:35;21.70;99.90
22114;DHT22;11223;49.968;9.062;2023-08-31T13:53:01;21.50;99.90
22114;DHT22;11223;49.968;9.062;2023-08-31T13:55:26;21.10;99.90
22114;DHT22;11223;49.968;9.062;2023-08-31T13:57:52;20.80;99.90
22114;DHT22;11223;49.968;9.062;2023-08-31T14:00:17;20.50;99.90
22114;DHT22;11223;49.968;9.062;2023-08-31T14:02:43;20.70;99.90
22114;DHT22;11223;49.968;9.062;2023-08-31T14:05:09;21.20;99.90
22114;DHT22;11223;49.968;9.062;2023-08-31T14:07:35;21.60;99.90
22114;DHT22;11223;49.968;9.062;2023-08-31T14:10:01;21.80;99.90
22114;DHT22;11223;49.968;9.062;2023-08-31T14:12:30;22.10;99.90
22114;DHT22;11223;49.968;9.062;2023-08-31T14:14:57;22.50;99.90
22114;DHT22;11223;49.968;9.062;2023-08-31T14:17:23;22.70;99.90
22114;DHT22;11223;49.968;9.062;2023-08-31T14:19:48;23.00;99.90
22114;DHT22;11223;49.968;9.062;2023-08-31T14:22:14;23.30;99.90
22114;DHT22;11223;49.968;9.062;2023-08-31T14:24:40;23.60;99.90
22114;DHT22;11223;49.968;9.062;2023-08-31T14:27:06;23.80;99.90
22114;DHT22;11223;49.968;9.062;2023-08-31T14:29:31;23.80;99.90
22114;DHT22;11223;49.968;9.062;2023-08-31T14:31:57;23.30;99.90
22114;DHT22;11223;49.968;9.062;2023-08-31T14:34:22;22.60;99.90
22114;DHT22;11223;49.968;9.062;2023-08-31T14:36:50;22.00;99.90
22114;DHT22;11223;49.968;9.062;2023-08-31T14:39:16;21.30;99.90
22114;DHT22;11223;49.968;9.062;2023-08-31T14:41:41;20.80;99.90
22114;DHT22;11223;49.968;9.062;2023-08-31T14:44:06;20.30;99.90
22114;DHT22;11223;49.968;9.062;2023-08-31T14:46:32;20.00;99.90
22114;DHT22;11223;49.968;9.062;2023-08-31T14:48:58;19.70;99.90
22114;DHT22;11223;49.968;9.062;2023-08-31T14:51:23;19.40;99.90
22114;DHT22;11223;49.968;9.062;2023-08-31T14:53:49;19.20;99.90
22114;DHT22;11223;49.968;9.062;2023-08-31T14:56:14;19.10;99.90
22114;DHT22;11223;49.968;9.062;2023-08-31T14:58:39;19.00;99.90
22114;DHT22;11223;49.968;9.062;2023-08-31T15:01:05;18.80;99.90
22114;DHT22;11223;49.968;9.062;2023-08-31T15:03:31;18.70;99.90
22114;DHT22;11223;49.968;9.062;2023-08-31T15:05:56;18.70;99.90
22114;DHT22;11223;49.968;9.062;2023-08-31T15:08:23;18.70;99.90
22114;DHT22;11223;49.968;9.062;2023-08-31T15:11:00;18.70;99.90
22114;DHT22;11223;49.968;9.062;2023-08-31T15:13:26;18.70;99.90
22114;DHT22;11223;49.968;9.062;2023-08-31T15:15:51;18.70;99.90
22114;DHT22;11223;49.968;9.062;2023-08-31T15:18:17;18.70;99.90
22114;DHT22;11223;49.968;9.062;2023-08-31T15:20:42;18.70;99.90
22114;DHT22;11223;49.968;9.062;2023-08-31T15:23:08;18.70;99.90
22114;DHT22;11223;49.968;9.062;2023-08-31T15:25:33;18.70;99.90
22114;DHT22;11223;49.968;9.062;2023-08-31T15:27:59;18.70;99.90
22114;DHT22;11223;49.968;9.062;2023-08-31T15:30:24;18.70;99.90